Aviation Digital Data Service (ADDS)

Output produced by METARs form (1359 UTC 22 April 2019)
found at http://www.aviationweather.gov/metar/data/
 
Forecast for: TGPY (POINT SALINES , GD)
Text: TGPY 220937Z 2212/2312 10017KT 9999 FEW020 SCT045
Forecast period: 1200 to 2200 UTC 22 April 2019
Forecast type: FROM: standard forecast or significant change
Winds: from the E (100 degrees) at 20 MPH (17 knots; 8.7 m/s)
Visibility: 6 or more miles 10+ km)
Ceiling: at least 12,000 feet AGL
Clouds: few clouds at 2000 feet AGL
scattered clouds at 4500 feet AGL
Weather: no significant weather forecast for this period
Text: BECMG 2222/2224 08012KT FEW018 SCT040
Forecast period: 2200 UTC 22 April 2019 to 1000 UTC 23 April 2019
Forecast type: BECOMING: Conditions expected to become as follows by 0000 UTC 23 April 2019
Winds: from the E (80 degrees) at 14 MPH (12 knots; 6.2 m/s)
Visibility: 6 or more miles 10+ km)
Ceiling: at least 12,000 feet AGL
Clouds: few clouds at 1800 feet AGL
scattered clouds at 4000 feet AGL
Weather: no significant weather forecast for this period
Text: BECMG 2310/2312 10016KT FEW021
Forecast period: 1000 to 1200 UTC 23 April 2019
Forecast type: BECOMING: Conditions expected to become as follows by 1200 UTC 23 April 2019
Winds: from the E (100 degrees) at 18 MPH (16 knots; 8.2 m/s)
Visibility: 6 or more miles 10+ km)
Ceiling: at least 12,000 feet AGL
Clouds: few clouds at 2100 feet AGL
Weather: no significant weather forecast for this period